Time;durP1;ratioP1;P1;durP2;ratioP2;P2;SDS_P1;SDS_P2;PMS_P1;PMS_P2;Temp;Humidity;BMP_temperature;BMP_pressure;BME280_temperature;BME280_humidity;BME280_pressure;Samples;Min_cycle;Max_cycle;Signal;HPM_P1;HPM_P2
2022/03/08 00:02:07;;;;;;;18.43;16.53;;;;;;;-0.23;68.24;100913.63;5004045;28;20668;-56
2022/03/08 00:04:32;;;;;;;18.90;16.90;;;;;;;-0.29;69.63;100907.41;5001205;28;20214;-56
2022/03/08 00:09:33;;;;;;;19.57;17.40;;;;;;;-0.35;70.28;100901.22;5856291;22;20224;-60
2022/03/08 00:11:58;;;;;;;19.37;16.37;;;;;;;-0.39;70.27;100901.91;5011116;28;20213;-56
2022/03/08 00:14:24;;;;;;;17.97;16.20;;;;;;;-0.41;70.21;100893.34;5007105;28;20633;-57
2022/03/08 00:16:50;;;;;;;18.90;17.00;;;;;;;-0.43;70.16;100904.22;5009067;28;20634;-57
2022/03/08 00:19:15;;;;;;;18.37;16.47;;;;;;;-0.40;70.38;100900.16;5003337;28;20214;-58
2022/03/08 00:21:41;;;;;;;20.87;18.60;;;;;;;-0.41;70.45;100893.34;5007487;28;20191;-59
2022/03/08 00:24:07;;;;;;;19.13;17.13;;;;;;;-0.38;71.27;100903.63;5007317;28;20636;-57
2022/03/08 00:26:33;;;;;;;19.23;17.30;;;;;;;-0.39;71.28;100904.44;5006933;28;20650;-61
2022/03/08 00:28:58;;;;;;;19.07;17.03;;;;;;;-0.45;71.54;100905.84;5009527;28;20225;-57
2022/03/08 00:31:32;;;;;;;18.77;16.73;;;;;;;-0.48;70.72;100892.19;5003249;28;20279;-60
2022/03/08 00:33:58;;;;;;;19.00;17.10;;;;;;;-0.54;71.23;100896.97;5007024;28;20620;-58
2022/03/08 00:36:24;;;;;;;23.00;20.53;;;;;;;-0.49;71.25;100895.53;5005429;28;20184;-60
2022/03/08 00:38:50;;;;;;;19.27;17.27;;;;;;;-0.43;71.42;100899.13;5006767;28;20284;-58
2022/03/08 00:41:16;;;;;;;22.77;20.40;;;;;;;-0.49;72.25;100903.16;5008017;28;20190;-57
2022/03/08 00:43:41;;;;;;;23.10;20.57;;;;;;;-0.53;72.67;100911.44;5013220;28;20226;-59
2022/03/08 00:46:07;;;;;;;18.90;16.87;;;;;;;-0.50;71.82;100905.59;5007602;28;20631;-58
2022/03/08 00:48:32;;;;;;;22.47;20.07;;;;;;;-0.49;72.48;100909.91;5011988;28;20542;-57
2022/03/08 00:51:00;;;;;;;21.07;18.87;;;;;;;-0.47;72.04;100904.09;5014696;28;20214;-57
2022/03/08 00:53:25;;;;;;;23.57;21.07;;;;;;;-0.45;71.65;100903.31;5016397;28;20216;-57
2022/03/08 00:55:51;;;;;;;22.93;18.13;;;;;;;-0.46;71.09;100902.41;5007135;28;20196;-57
2022/03/08 00:58:16;;;;;;;24.93;22.23;;;;;;;-0.50;71.48;100906.50;4999755;28;20187;-60
2022/03/08 01:00:42;;;;;;;21.23;19.03;;;;;;;-0.51;71.68;100898.78;5005583;28;20241;-57
2022/03/08 01:03:08;;;;;;;26.50;22.10;;;;;;;-0.54;71.89;100893.56;5009385;28;20212;-58
2022/03/08 01:05:34;;;;;;;19.57;17.57;;;;;;;-0.55;71.58;100896.91;5007231;28;20202;-58
2022/03/08 01:08:01;;;;;;;21.10;18.80;;;;;;;-0.61;72.24;100902.59;4999062;28;20646;-58
2022/03/08 01:10:27;;;;;;;21.67;19.27;;;;;;;-0.63;72.64;100892.34;5003542;28;20226;-58
2022/03/08 01:12:54;;;;;;;23.13;20.63;;;;;;;-0.63;72.48;100897.41;5003429;28;20519;-58
2022/03/08 01:15:25;;;;;;;24.07;20.83;;;;;;;-0.67;72.83;100899.75;5004523;28;20193;-56
2022/03/08 01:17:52;;;;;;;23.80;21.30;;;;;;;-0.73;72.41;100892.72;5006991;28;20213;-62
2022/03/08 01:20:17;;;;;;;25.00;21.23;;;;;;;-0.75;72.11;100891.78;5009276;28;20464;-57
2022/03/08 01:22:43;;;;;;;23.00;20.60;;;;;;;-0.77;72.80;100889.16;5004687;28;20545;-58
2022/03/08 01:25:11;;;;;;;20.90;18.30;;;;;;;-0.80;72.57;100880.50;4989912;28;20195;-56
2022/03/08 01:27:36;;;;;;;19.53;17.47;;;;;;;-0.82;72.58;100889.72;4988489;28;20196;-58
2022/03/08 01:30:06;;;;;;;18.90;16.90;;;;;;;-0.84;72.94;100887.13;5000782;28;20210;-62
2022/03/08 01:32:31;;;;;;;22.00;19.70;;;;;;;-0.88;72.81;100879.28;5002805;28;20577;-58
2022/03/08 01:34:57;;;;;;;23.03;20.53;;;;;;;-0.90;72.88;100884.28;5003514;28;20196;-58
2022/03/08 01:37:22;;;;;;;24.33;21.40;;;;;;;-0.90;73.06;100886.81;5007548;28;20198;-59
2022/03/08 01:39:47;;;;;;;23.10;20.73;;;;;;;-0.92;73.19;100883.38;5005156;28;20221;-59
2022/03/08 01:42:16;;;;;;;24.20;21.60;;;;;;;-0.95;73.51;100884.06;5002595;28;20695;-58
2022/03/08 01:44:43;;;;;;;23.07;20.57;;;;;;;-0.98;73.49;100878.84;5003151;28;20193;-58
2022/03/08 01:47:12;;;;;;;22.67;20.00;;;;;;;-1.02;73.91;100884.59;5004244;28;20201;-56
2022/03/08 01:49:38;;;;;;;23.57;20.90;;;;;;;-1.04;74.36;100870.94;5006505;28;20631;-58
2022/03/08 01:52:04;;;;;;;23.80;20.70;;;;;;;-1.07;74.33;100860.63;5001794;28;20209;-61
2022/03/08 01:54:29;;;;;;;24.77;22.03;;;;;;;-1.13;74.31;100856.13;5008797;28;20188;-58
2022/03/08 01:56:55;;;;;;;24.50;21.90;;;;;;;-1.17;74.66;100845.75;5006588;28;20275;-59
2022/03/08 01:59:20;;;;;;;25.57;22.77;;;;;;;-1.20;75.28;100848.16;5003651;28;20212;-58
2022/03/08 02:01:45;;;;;;;22.03;19.73;;;;;;;-1.18;75.23;100844.88;5005191;28;20193;-58
2022/03/08 02:04:12;;;;;;;23.50;21.00;;;;;;;-1.22;75.62;100840.47;5001014;28;20590;-61
2022/03/08 02:06:37;;;;;;;25.17;22.47;;;;;;;-1.23;75.27;100851.41;5007247;28;20284;-58
2022/03/08 02:09:03;;;;;;;18.87;16.97;;;;;;;-1.26;75.55;100836.03;5004750;28;20292;-57
2022/03/08 02:11:29;;;;;;;22.70;20.33;;;;;;;-1.28;75.33;100837.63;5005266;28;20677;-59
2022/03/08 02:13:55;;;;;;;23.17;19.40;;;;;;;-1.29;75.07;100834.22;5001303;28;20269;-58
2022/03/08 02:16:21;;;;;;;20.80;18.60;;;;;;;-1.30;74.45;100832.47;5000693;28;20277;-57
2022/03/08 02:18:47;;;;;;;22.63;20.20;;;;;;;-1.30;75.19;100832.47;5007663;28;20665;-57
2022/03/08 02:21:12;;;;;;;20.37;18.13;;;;;;;-1.27;74.78;100821.59;5000982;28;20212;-58
2022/03/08 02:23:38;;;;;;;20.93;18.70;;;;;;;-1.21;74.60;100826.94;5006754;28;20220;-62
2022/03/08 02:26:03;;;;;;;22.63;20.17;;;;;;;-1.21;74.42;100816.78;5001181;28;20189;-61
2022/03/08 02:28:29;;;;;;;20.57;18.37;;;;;;;-1.14;74.08;100811.19;4998938;28;20648;-58
2022/03/08 02:30:56;;;;;;;25.00;21.50;;;;;;;-1.12;74.02;100823.97;5010051;28;20558;-58
2022/03/08 02:33:22;;;;;;;21.40;19.17;;;;;;;-1.13;73.99;100817.13;5003476;28;20204;-57
2022/03/08 02:35:47;;;;;;;23.60;21.07;;;;;;;-1.11;73.83;100805.38;5004093;28;20667;-58
2022/03/08 02:38:13;;;;;;;18.43;16.53;;;;;;;-1.12;74.07;100823.97;5009712;28;20199;-61
2022/03/08 02:40:40;;;;;;;20.90;18.50;;;;;;;-1.07;73.20;100797.13;5006304;28;20213;-57
2022/03/08 02:43:07;;;;;;;17.53;15.67;;;;;;;-1.09;73.44;100796.16;5007293;28;20265;-61
2022/03/08 02:45:33;;;;;;;17.03;15.23;;;;;;;-1.03;73.17;100803.19;5003730;28;20678;-64
2022/03/08 02:48:00;;;;;;;16.97;15.17;;;;;;;-1.01;72.98;100788.91;5004423;28;20188;-60
2022/03/08 02:50:25;;;;;;;17.97;15.30;;;;;;;-0.98;72.43;100791.59;5003089;28;20205;-62
2022/03/08 02:52:52;;;;;;;17.93;16.10;;;;;;;-0.93;72.68;100797.78;5004574;28;20726;-59
2022/03/08 02:55:22;;;;;;;18.23;16.03;;;;;;;-1.03;73.32;100793.94;4990114;28;20451;-57
2022/03/08 02:57:48;;;;;;;16.60;14.90;;;;;;;-1.05;72.98;100804.78;5001625;28;20194;-61
2022/03/08 03:00:16;;;;;;;18.03;15.90;;;;;;;-1.09;72.41;100803.78;5001745;28;20243;-57
2022/03/08 03:02:41;;;;;;;19.37;17.47;;;;;;;-1.14;72.50;100800.19;5005275;28;20190;-57
2022/03/08 03:05:08;;;;;;;20.33;18.20;;;;;;;-1.15;73.03;100798.44;4996937;28;20554;-58
2022/03/08 03:07:33;;;;;;;19.03;17.03;;;;;;;-1.23;73.88;100788.78;4997651;28;20650;-58
2022/03/08 03:09:59;;;;;;;18.83;16.87;;;;;;;-1.20;73.65;100793.13;5002011;28;20232;-60
2022/03/08 03:12:25;;;;;;;20.07;17.97;;;;;;;-1.19;73.97;100789.78;4996695;28;20212;-58
2022/03/08 03:14:50;;;;;;;17.10;15.23;;;;;;;-1.16;73.50;100799.25;5011301;28;20192;-58
2022/03/08 03:17:18;;;;;;;17.97;16.17;;;;;;;-1.15;74.06;100785.75;5008275;28;20275;-59
2022/03/08 03:19:44;;;;;;;18.07;16.17;;;;;;;-1.16;74.59;100795.00;4987323;28;20394;-58
2022/03/08 03:22:10;;;;;;;19.23;17.20;;;;;;;-1.18;74.22;100790.66;4986276;28;20191;-58
2022/03/08 03:24:35;;;;;;;20.50;18.30;;;;;;;-1.21;74.24;100780.38;4984920;28;21081;-58
2022/03/08 03:27:00;;;;;;;20.13;17.30;;;;;;;-1.22;73.55;100787.13;5007690;28;20192;-62
2022/03/08 03:29:26;;;;;;;17.73;15.83;;;;;;;-1.25;73.59;100785.28;4989188;28;20306;-57
2022/03/08 03:31:51;;;;;;;18.00;15.87;;;;;;;-1.25;74.64;100785.28;5006623;28;20611;-57
2022/03/08 03:34:17;;;;;;;19.40;17.13;;;;;;;-1.28;74.77;100787.69;5006095;28;21104;-60
2022/03/08 03:36:42;;;;;;;17.60;14.80;;;;;;;-1.32;74.24;100793.44;5015047;28;20191;-58
2022/03/08 03:39:07;;;;;;;15.50;13.87;;;;;;;-1.32;74.14;100775.66;5004252;28;20361;-58
2022/03/08 03:41:33;;;;;;;17.27;15.47;;;;;;;-1.35;74.08;100777.16;5009113;28;20276;-61
2022/03/08 03:43:58;;;;;;;16.80;15.00;;;;;;;-1.36;74.02;100789.00;5014797;28;20534;-57
2022/03/08 03:46:24;;;;;;;20.07;17.97;;;;;;;-1.42;74.25;100788.69;5005630;28;20194;-58
2022/03/08 03:48:49;;;;;;;16.57;14.77;;;;;;;-1.47;74.24;100783.41;5010372;28;20677;-60
2022/03/08 03:51:16;;;;;;;16.30;14.60;;;;;;;-1.43;74.17;100779.34;5010699;28;20190;-57
2022/03/08 03:53:42;;;;;;;18.67;16.60;;;;;;;-1.45;74.43;100791.97;4997928;28;20633;-61
2022/03/08 03:56:07;;;;;;;20.00;17.83;;;;;;;-1.42;74.60;100781.97;5008629;28;20188;-61
2022/03/08 03:58:33;;;;;;;20.10;18.10;;;;;;;-1.43;74.84;100776.78;5008262;28;20202;-60
2022/03/08 04:00:58;;;;;;;19.07;15.67;;;;;;;-1.39;74.52;100783.78;5013190;28;20215;-60
2022/03/08 04:03:24;;;;;;;17.70;15.80;;;;;;;-1.35;74.39;100767.91;5010154;28;20193;-57
2022/03/08 04:05:49;;;;;;;19.80;17.80;;;;;;;-1.31;74.40;100776.53;5008131;28;20200;-57
2022/03/08 04:08:15;;;;;;;16.73;14.93;;;;;;;-1.30;74.54;100781.69;5003878;28;20192;-59
2022/03/08 04:10:41;;;;;;;18.20;15.53;;;;;;;-1.29;74.39;100769.84;5013479;28;20223;-57
2022/03/08 04:13:07;;;;;;;17.50;15.00;;;;;;;-1.29;74.83;100777.47;5012201;28;20212;-58
2022/03/08 04:15:32;;;;;;;22.07;17.50;;;;;;;-1.29;74.73;100778.34;5009630;28;20276;-59
2022/03/08 04:17:58;;;;;;;19.57;17.27;;;;;;;-1.28;74.56;100775.00;5006522;28;20276;-56
2022/03/08 04:20:23;;;;;;;20.37;18.20;;;;;;;-1.30;74.26;100773.19;5010332;28;20233;-60
2022/03/08 04:22:49;;;;;;;22.13;19.70;;;;;;;-1.24;74.60;100773.47;5009514;28;20271;-63
2022/03/08 04:25:14;;;;;;;18.90;16.23;;;;;;;-1.21;73.89;100780.38;5007970;28;20291;-61
2022/03/08 04:27:39;;;;;;;20.87;18.20;;;;;;;-1.24;73.40;100781.09;5009730;28;20191;-57
2022/03/08 04:30:07;;;;;;;18.10;16.23;;;;;;;-1.24;73.54;100778.56;5004297;28;20213;-64
2022/03/08 04:32:32;;;;;;;19.50;17.40;;;;;;;-1.24;73.42;100779.41;5008248;28;20630;-60
2022/03/08 04:34:58;;;;;;;22.00;19.47;;;;;;;-1.20;73.35;100782.09;5005645;28;20193;-58
2022/03/08 04:37:23;;;;;;;20.27;18.13;;;;;;;-1.20;73.53;100779.56;5003256;28;20185;-58
2022/03/08 04:39:49;;;;;;;19.97;17.97;;;;;;;-1.23;73.72;100780.31;5006185;28;20829;-57
2022/03/08 04:42:14;;;;;;;15.80;14.10;;;;;;;-1.22;73.07;100771.88;5005698;28;20203;-57
2022/03/08 04:44:39;;;;;;;16.00;14.40;;;;;;;-1.24;72.92;100773.47;5007344;28;20603;-56
2022/03/08 04:47:05;;;;;;;16.47;14.73;;;;;;;-1.23;72.88;100775.22;5006697;28;20196;-63
2022/03/08 04:49:30;;;;;;;18.57;15.73;;;;;;;-1.24;73.39;100761.63;5006323;28;20216;-58
2022/03/08 04:51:55;;;;;;;16.27;14.47;;;;;;;-1.27;73.29;100770.78;5010001;28;20236;-58
2022/03/08 04:54:24;;;;;;;16.23;13.43;;;;;;;-1.24;72.86;100776.03;5009416;28;20199;-57
2022/03/08 04:56:49;;;;;;;15.37;12.47;;;;;;;-1.22;72.89;100771.88;5006648;28;20189;-57
2022/03/08 04:59:14;;;;;;;14.13;12.73;;;;;;;-1.22;72.72;100774.44;5009532;28;20216;-58
2022/03/08 05:01:40;;;;;;;13.83;12.43;;;;;;;-1.24;72.77;100778.56;5006547;28;20687;-57
2022/03/08 05:04:05;;;;;;;13.10;11.60;;;;;;;-1.27;72.61;100778.41;5008229;28;20300;-57
2022/03/08 05:06:30;;;;;;;13.50;12.10;;;;;;;-1.35;73.35;100782.25;5002901;28;20242;-59
2022/03/08 05:08:57;;;;;;;17.47;14.87;;;;;;;-1.39;73.84;100777.03;5008161;28;20198;-64
2022/03/08 05:11:22;;;;;;;18.53;15.30;;;;;;;-1.45;73.97;100774.19;5001977;28;20206;-58
2022/03/08 05:13:47;;;;;;;14.70;13.20;;;;;;;-1.45;72.98;100775.88;5008954;28;20239;-57
2022/03/08 05:16:13;;;;;;;16.10;14.40;;;;;;;-1.42;73.86;100786.16;5011089;28;20605;-63
2022/03/08 05:18:38;;;;;;;17.50;14.97;;;;;;;-1.49;74.45;100792.63;5017349;28;20189;-66
2022/03/08 05:21:03;;;;;;;16.60;13.13;;;;;;;-1.49;73.95;100790.06;5007158;28;20224;-57
2022/03/08 05:23:29;;;;;;;15.17;13.57;;;;;;;-1.50;73.56;100783.25;5003795;28;20725;-61
2022/03/08 05:25:54;;;;;;;15.50;13.10;;;;;;;-1.47;72.99;100773.25;4992234;28;20759;-60
2022/03/08 05:28:20;;;;;;;14.23;11.97;;;;;;;-1.43;71.81;100781.88;5001103;28;20533;-59
2022/03/08 05:30:45;;;;;;;12.63;11.33;;;;;;;-1.47;71.72;100774.94;5006994;28;20214;-57
2022/03/08 05:33:11;;;;;;;14.83;12.93;;;;;;;-1.50;71.94;100773.09;5001191;28;20348;-62
2022/03/08 05:35:37;;;;;;;19.70;16.27;;;;;;;-1.50;73.02;100777.31;5003036;28;20186;-60
2022/03/08 05:38:03;;;;;;;20.97;17.30;;;;;;;-1.46;72.89;100774.13;5006543;28;20190;-57
2022/03/08 05:40:28;;;;;;;20.33;17.50;;;;;;;-1.43;73.53;100759.91;5007950;28;20202;-58
2022/03/08 05:42:53;;;;;;;17.90;16.03;;;;;;;-1.41;73.84;100772.66;4984180;28;20198;-57
2022/03/08 05:45:19;;;;;;;19.47;17.37;;;;;;;-1.45;74.23;100765.72;5005037;28;20215;-57
2022/03/08 05:47:48;;;;;;;16.47;14.77;;;;;;;-1.46;74.86;100771.59;5009074;28;20192;-58
2022/03/08 05:50:13;;;;;;;18.77;16.23;;;;;;;-1.47;74.45;100773.25;4995718;28;20688;-57
2022/03/08 05:52:39;;;;;;;15.83;13.67;;;;;;;-1.42;75.01;100773.47;5005152;28;20200;-58
2022/03/08 05:55:05;;;;;;;17.03;14.73;;;;;;;-1.41;74.20;100770.13;5004562;28;20536;-60
2022/03/08 05:57:31;;;;;;;17.07;15.27;;;;;;;-1.42;74.80;100778.53;5001111;28;20185;-57
2022/03/08 05:59:56;;;;;;;17.37;14.43;;;;;;;-1.42;75.30;100774.34;5010575;28;20212;-60
2022/03/08 06:02:22;;;;;;;13.77;12.37;;;;;;;-1.42;75.33;100774.34;4991022;28;20215;-57
2022/03/08 06:04:48;;;;;;;15.67;12.43;;;;;;;-1.42;74.89;100778.53;5008322;28;20264;-60
2022/03/08 06:07:13;;;;;;;17.37;14.87;;;;;;;-1.45;74.17;100773.34;5010765;28;20208;-58
2022/03/08 06:09:39;;;;;;;18.27;15.43;;;;;;;-1.46;73.35;100786.84;4977819;28;20217;-57
2022/03/08 06:12:05;;;;;;;14.30;12.83;;;;;;;-1.49;73.86;100785.00;5010792;28;20236;-58
2022/03/08 06:14:30;;;;;;;21.33;18.83;;;;;;;-1.49;74.60;100790.06;5008285;28;20189;-56
2022/03/08 06:16:56;;;;;;;23.87;20.07;;;;;;;-1.46;74.68;100784.28;5011600;28;20189;-58
2022/03/08 06:19:21;;;;;;;24.13;19.27;;;;;;;-1.48;74.69;100786.75;5002496;28;20209;-61
2022/03/08 06:21:47;;;;;;;16.40;14.23;;;;;;;-1.41;74.52;100785.38;4992395;28;20693;-58
2022/03/08 06:24:13;;;;;;;16.07;13.50;;;;;;;-1.32;73.92;100792.56;5007033;28;20216;-57
2022/03/08 06:26:38;;;;;;;14.67;13.17;;;;;;;-1.24;72.94;100784.50;5020854;28;20713;-59
2022/03/08 06:29:04;;;;;;;15.07;13.57;;;;;;;-1.23;73.20;100793.00;5000144;28;20187;-62
2022/03/08 06:31:29;;;;;;;14.90;13.20;;;;;;;-1.24;73.29;100786.19;4988095;28;20224;-57
2022/03/08 06:33:56;;;;;;;18.47;14.80;;;;;;;-1.18;73.21;100783.91;5005534;28;20242;-61
2022/03/08 06:36:21;;;;;;;20.20;16.27;;;;;;;-1.11;72.90;100787.59;5004061;28;20272;-60
2022/03/08 06:38:47;;;;;;;17.57;15.07;;;;;;;-1.09;73.00;100781.81;5005487;28;20328;-60
2022/03/08 06:41:12;;;;;;;19.37;17.37;;;;;;;-1.01;73.51;100796.53;4982584;28;20210;-59
2022/03/08 06:43:39;;;;;;;19.07;15.57;;;;;;;-0.88;73.41;100787.81;4999777;28;21081;-57
2022/03/08 06:46:05;;;;;;;18.67;15.47;;;;;;;-0.82;73.20;100803.31;4993748;28;20189;-58
2022/03/08 06:48:30;;;;;;;19.53;16.57;;;;;;;-0.81;73.85;100798.31;5008239;28;20215;-56
2022/03/08 06:50:55;;;;;;;14.07;12.03;;;;;;;-0.66;72.68;100789.66;5007811;28;20674;-60
2022/03/08 06:53:21;;;;;;;14.13;12.73;;;;;;;-0.58;72.92;100805.25;5008302;28;20260;-59
2022/03/08 06:55:46;;;;;;;19.73;16.33;;;;;;;-0.50;72.77;100803.91;4999365;28;20303;-58
2022/03/08 06:58:12;;;;;;;16.87;12.47;;;;;;;-0.36;72.48;100819.78;4976807;28;20185;-56
2022/03/08 07:00:37;;;;;;;13.53;12.13;;;;;;;-0.27;71.60;100819.31;4999216;28;20675;-60
2022/03/08 07:03:02;;;;;;;14.20;12.07;;;;;;;-0.26;71.05;100811.75;4996495;28;20186;-55
2022/03/08 07:05:28;;;;;;;12.63;11.10;;;;;;;-0.24;71.10;100816.91;4996985;28;20196;-56
2022/03/08 07:07:53;;;;;;;13.47;11.50;;;;;;;-0.18;70.55;100814.63;5009638;28;20189;-58
2022/03/08 07:10:18;;;;;;;15.40;10.40;;;;;;;-0.14;70.14;100826.69;5010479;28;20228;-56
2022/03/08 07:12:47;;;;;;;16.90;10.13;;;;;;;-0.08;70.15;100816.78;5011104;28;20219;-57
2022/03/08 07:15:14;;;;;;;19.47;11.10;;;;;;;-0.03;69.61;100833.09;5010247;28;20187;-56
2022/03/08 07:17:43;;;;;;;17.77;11.73;;;;;;;0.03;69.61;100824.84;5009800;28;20563;-60
2022/03/08 07:20:09;;;;;;;14.80;10.23;;;;;;;0.08;70.06;100823.38;5004649;28;20624;-57
2022/03/08 07:22:36;;;;;;;12.63;9.90;;;;;;;0.19;70.25;100825.50;4991003;28;20665;-59
2022/03/08 07:25:01;;;;;;;11.00;9.97;;;;;;;0.26;69.93;100830.91;5001212;28;20189;-58
2022/03/08 07:27:27;;;;;;;11.23;10.13;;;;;;;0.37;69.67;100825.41;4994529;28;20547;-60
2022/03/08 07:29:52;;;;;;;12.30;10.17;;;;;;;0.41;69.60;100823.03;5009806;28;20288;-60
2022/03/08 07:32:18;;;;;;;11.03;10.03;;;;;;;0.47;69.97;100821.53;5009121;28;20811;-57
2022/03/08 07:34:43;;;;;;;11.57;10.37;;;;;;;0.56;69.19;100819.38;4998187;28;20224;-57
2022/03/08 07:37:09;;;;;;;11.50;10.30;;;;;;;0.64;68.86;100824.78;4996061;28;20196;-59
2022/03/08 07:39:34;;;;;;;12.60;10.60;;;;;;;0.67;68.79;100830.84;5005845;28;20683;-59
2022/03/08 07:42:00;;;;;;;11.50;9.97;;;;;;;0.70;68.84;100828.44;5002681;28;21122;-61
2022/03/08 07:44:25;;;;;;;12.27;9.80;;;;;;;0.78;68.65;100818.56;5000041;28;20298;-60
2022/03/08 07:46:50;;;;;;;10.87;9.67;;;;;;;0.85;68.39;100815.41;4990700;28;20188;-58
2022/03/08 07:49:16;;;;;;;10.57;9.47;;;;;;;0.94;68.42;100816.59;4990673;28;20270;-59
2022/03/08 07:51:42;;;;;;;10.73;9.60;;;;;;;0.96;68.42;100826.03;5002668;28;20689;-61
2022/03/08 07:54:07;;;;;;;10.30;9.33;;;;;;;1.00;67.71;100821.94;5004592;28;20269;-60
2022/03/08 07:56:33;;;;;;;12.10;9.37;;;;;;;1.07;68.30;100813.72;4996905;28;20195;-57
2022/03/08 07:58:58;;;;;;;10.37;9.37;;;;;;;1.14;68.12;100812.28;4997397;28;20203;-60
2022/03/08 08:01:24;;;;;;;11.53;9.80;;;;;;;1.19;67.96;100814.19;4992524;28;20673;-57
2022/03/08 08:03:49;;;;;;;14.77;9.73;;;;;;;1.31;67.87;100808.69;4996569;28;20305;-56
2022/03/08 08:06:15;;;;;;;10.47;9.23;;;;;;;1.37;67.26;100810.59;4991692;28;20197;-54
2022/03/08 08:08:40;;;;;;;10.17;8.97;;;;;;;1.45;67.68;100804.06;5003891;28;20192;-59
2022/03/08 08:11:05;;;;;;;13.50;8.87;;;;;;;1.54;67.10;100810.34;5002018;28;20270;-56
2022/03/08 08:13:31;;;;;;;11.03;9.07;;;;;;;1.61;66.78;100805.50;5005920;28;20216;-57
2022/03/08 08:15:56;;;;;;;11.27;9.93;;;;;;;1.65;66.77;100807.38;4986210;28;20550;-61
2022/03/08 08:18:22;;;;;;;10.43;9.30;;;;;;;1.74;67.00;100801.69;5005831;28;20188;-58
2022/03/08 08:20:47;;;;;;;10.53;8.60;;;;;;;1.80;66.51;100804.47;5013943;28;20236;-58
2022/03/08 08:23:12;;;;;;;10.67;8.93;;;;;;;1.88;66.02;100799.63;5007121;28;20668;-58
2022/03/08 08:25:38;;;;;;;9.57;8.53;;;;;;;1.98;65.84;100801.69;5007116;28;20205;-57
2022/03/08 08:28:06;;;;;;;9.30;8.30;;;;;;;2.09;66.09;100801.19;5001197;28;20200;-58
2022/03/08 08:30:32;;;;;;;17.60;9.47;;;;;;;2.21;66.01;100798.16;4983265;28;20200;-58
2022/03/08 08:32:57;;;;;;;12.60;8.87;;;;;;;2.34;66.16;100802.00;4995706;28;20576;-58
2022/03/08 08:35:22;;;;;;;12.13;8.03;;;;;;;2.41;66.44;100799.69;5012048;28;20188;-59
2022/03/08 08:37:48;;;;;;;11.50;8.80;;;;;;;2.52;65.56;100796.63;4996013;28;20200;-58
2022/03/08 08:40:13;;;;;;;8.53;7.73;;;;;;;2.63;66.22;100785.06;4991896;28;20208;-60
2022/03/08 08:42:39;;;;;;;8.20;7.40;;;;;;;2.78;65.73;100776.16;5007894;28;20204;-58
2022/03/08 08:45:05;;;;;;;8.83;8.03;;;;;;;2.86;65.16;100780.69;4986639;28;20189;-57
2022/03/08 08:47:30;;;;;;;7.93;7.23;;;;;;;2.97;64.49;100782.69;5008431;28;20207;-57
2022/03/08 08:49:56;;;;;;;13.27;7.73;;;;;;;3.09;65.08;100771.97;5008168;28;20213;-58
2022/03/08 08:52:21;;;;;;;8.13;6.90;;;;;;;3.14;63.32;100784.06;5010738;28;20209;-57
2022/03/08 08:54:48;;;;;;;8.83;7.20;;;;;;;3.23;62.82;100774.91;4994858;28;20533;-58
2022/03/08 08:57:13;;;;;;;9.37;7.20;;;;;;;3.35;63.36;100772.69;4998134;28;20196;-55
2022/03/08 08:59:39;;;;;;;7.30;6.70;;;;;;;3.44;63.26;100769.53;5008908;28;20575;-57
2022/03/08 09:02:04;;;;;;;7.37;6.77;;;;;;;3.58;63.56;100764.81;5000799;28;20189;-58
2022/03/08 09:04:30;;;;;;;7.97;7.03;;;;;;;3.69;63.29;100773.63;4979974;28;20239;-56
2022/03/08 09:06:55;;;;;;;8.43;6.20;;;;;;;3.78;62.89;100758.50;5003180;28;20236;-56
2022/03/08 09:09:21;;;;;;;7.67;6.30;;;;;;;3.96;62.38;100767.50;5011733;28;20212;-58
2022/03/08 09:11:46;;;;;;;7.97;6.40;;;;;;;4.00;61.64;100765.91;4992870;28;20211;-57
2022/03/08 09:14:11;;;;;;;8.23;6.60;;;;;;;4.13;61.97;100760.25;5002827;28;20218;-57
2022/03/08 09:16:37;;;;;;;10.43;6.70;;;;;;;4.29;61.60;100758.94;4994545;28;20201;-59
2022/03/08 09:19:03;;;;;;;6.67;6.07;;;;;;;4.36;61.06;100748.00;4979072;28;20508;-56
2022/03/08 09:21:29;;;;;;;7.03;6.40;;;;;;;4.33;59.62;100747.94;4997587;28;20193;-56
2022/03/08 09:23:54;;;;;;;6.97;6.27;;;;;;;4.39;59.66;100763.44;4995044;28;20567;-58
2022/03/08 09:26:19;;;;;;;7.20;6.60;;;;;;;4.46;59.91;100754.22;4994319;28;20339;-61
2022/03/08 09:28:45;;;;;;;9.13;6.90;;;;;;;4.56;59.30;100756.16;4993472;28;20235;-58
2022/03/08 09:31:10;;;;;;;6.73;6.13;;;;;;;4.65;58.81;100746.94;5010387;28;20219;-58
2022/03/08 09:33:35;;;;;;;5.97;5.47;;;;;;;4.90;58.85;100744.94;4995964;28;20213;-58
2022/03/08 09:36:01;;;;;;;6.33;5.83;;;;;;;5.03;59.34;100732.38;5016453;28;20223;-57
2022/03/08 09:38:26;;;;;;;7.87;6.70;;;;;;;5.10;57.97;100746.22;5016413;28;20260;-58
2022/03/08 09:40:53;;;;;;;6.63;6.03;;;;;;;5.07;56.45;100738.44;5015059;28;20212;-58
2022/03/08 09:43:18;;;;;;;6.57;5.97;;;;;;;5.14;56.86;100736.91;5005802;28;20247;-57
2022/03/08 09:45:44;;;;;;;6.60;6.00;;;;;;;5.25;57.18;100735.41;4995031;28;20181;-58
2022/03/08 09:48:09;;;;;;;8.07;6.73;;;;;;;5.27;56.10;100736.31;4992471;28;20656;-66
2022/03/08 09:50:35;;;;;;;6.87;6.27;;;;;;;5.33;56.67;100731.28;5001425;28;20217;-58
2022/03/08 09:53:02;;;;;;;7.03;6.37;;;;;;;5.38;56.76;100736.50;5000115;28;20295;-58
2022/03/08 09:55:27;;;;;;;6.93;6.33;;;;;;;5.45;56.91;100738.38;5009856;28;20566;-60
2022/03/08 09:57:54;;;;;;;7.23;6.53;;;;;;;5.50;57.04;100746.16;5004493;28;20198;-58
2022/03/08 10:00:22;;;;;;;6.83;6.23;;;;;;;5.56;56.53;100743.72;5009695;28;20316;-58
2022/03/08 10:02:56;;;;;;;7.53;6.83;;;;;;;5.61;56.98;100741.22;5007656;28;20185;-58
2022/03/08 10:05:23;;;;;;;7.20;6.50;;;;;;;5.62;57.12;100732.69;5003566;28;20199;-58
2022/03/08 10:08:08;;;;;;;7.50;6.90;;;;;;;5.79;57.29;100733.84;5008587;28;20193;-59
2022/03/08 10:10:49;;;;;;;7.07;6.33;;;;;;;5.85;57.16;100732.22;4992347;28;20235;-57
2022/03/08 10:13:15;;;;;;;6.87;6.10;;;;;;;6.02;56.12;100738.56;5009041;28;20710;-60
2022/03/08 10:15:41;;;;;;;8.47;7.67;;;;;;;5.98;56.49;100730.75;4990369;28;20279;-60
2022/03/08 10:18:07;;;;;;;8.40;7.57;;;;;;;6.00;56.86;100734.22;5006006;28;20608;-61
2022/03/08 10:20:33;;;;;;;8.80;8.00;;;;;;;6.05;56.19;100740.31;5000224;28;20202;-57
2022/03/08 10:23:00;;;;;;;8.37;7.50;;;;;;;6.08;56.45;100735.22;4987112;28;20206;-57
2022/03/08 10:25:30;;;;;;;17.90;8.17;;;;;;;6.10;55.31;100734.41;5010685;28;20179;-58
2022/03/08 10:27:55;;;;;;;8.67;7.70;;;;;;;6.04;55.90;100733.47;4999718;28;20211;-60
2022/03/08 10:30:22;;;;;;;7.83;7.13;;;;;;;6.08;56.20;100743.81;4989883;28;20205;-57
2022/03/08 10:32:48;;;;;;;8.03;7.30;;;;;;;6.20;56.51;100734.56;5011433;28;20229;-57
2022/03/08 10:35:23;;;;;;;7.77;6.97;;;;;;;6.44;56.22;100720.34;4993714;28;20191;-58
2022/03/08 10:37:49;;;;;;;8.60;7.80;;;;;;;6.33;55.36;100721.06;4995186;28;20745;-57
2022/03/08 10:40:22;;;;;;;9.03;7.83;;;;;;;6.31;56.30;100727.88;4996655;28;20287;-58
2022/03/08 10:42:58;;;;;;;7.77;7.00;;;;;;;6.49;56.17;100732.47;4984183;28;20184;-60
2022/03/08 10:45:26;;;;;;;9.17;7.90;;;;;;;6.59;56.22;100730.00;4995581;28;20650;-57
2022/03/08 10:47:53;;;;;;;8.93;7.97;;;;;;;6.59;55.16;100725.72;4973592;28;20183;-56
2022/03/08 10:50:23;;;;;;;8.43;7.47;;;;;;;6.74;56.26;100719.94;4985300;28;20215;-59
2022/03/08 10:52:51;;;;;;;8.90;7.30;;;;;;;6.84;56.07;100723.50;5004451;28;20214;-58
2022/03/08 10:55:20;;;;;;;8.03;7.17;;;;;;;6.79;55.00;100722.56;5010502;28;20224;-59
2022/03/08 10:57:54;;;;;;;8.40;7.70;;;;;;;6.82;55.02;100714.91;4998167;28;20275;-58
2022/03/08 11:00:23;;;;;;;8.90;7.97;;;;;;;6.81;54.27;100713.16;5005624;28;20210;-58
2022/03/08 11:02:49;;;;;;;8.43;7.73;;;;;;;6.79;54.15;100726.03;4995324;28;20182;-59
2022/03/08 11:05:16;;;;;;;7.30;6.60;;;;;;;6.87;54.40;100715.84;5000922;28;20181;-57
2022/03/08 11:07:41;;;;;;;9.23;8.43;;;;;;;6.83;54.68;100709.75;5007612;28;20183;-58
2022/03/08 11:10:09;;;;;;;8.20;7.40;;;;;;;6.98;55.55;100718.53;4992892;28;20707;-58
2022/03/08 11:12:36;;;;;;;8.67;7.87;;;;;;;7.03;54.84;100713.47;5011149;28;20263;-57
2022/03/08 11:15:02;;;;;;;7.77;7.00;;;;;;;7.10;54.37;100704.94;5011116;28;20186;-58